createdAt,value
2023-04-08T00:00:17.329Z,16.50
2023-04-08T00:02:43.972Z,16.55
2023-04-08T00:05:10.620Z,15.52
2023-04-08T00:07:37.476Z,16.80
2023-04-08T00:10:04.317Z,15.25
2023-04-08T00:12:30.936Z,18.15
2023-04-08T00:14:58.030Z,17.95
2023-04-08T00:17:24.574Z,21.35
2023-04-08T00:19:51.727Z,18.10
2023-04-08T00:22:18.549Z,17.65
2023-04-08T00:24:45.040Z,22.08
2023-04-08T00:27:11.567Z,19.20
2023-04-08T00:29:38.050Z,18.88
2023-04-08T00:32:04.845Z,22.63
2023-04-08T00:34:31.326Z,22.25
2023-04-08T00:36:58.259Z,24.67
2023-04-08T00:39:25.044Z,29.08
2023-04-08T00:41:51.502Z,21.25
2023-04-08T00:44:18.097Z,28.83
2023-04-08T00:46:44.585Z,30.75
2023-04-08T00:49:11.438Z,27.67
2023-04-08T00:51:38.009Z,31.08
2023-04-08T00:54:05.299Z,35.38
2023-04-08T00:56:32.786Z,34.08
2023-04-08T00:59:00.418Z,32.53
2023-04-08T01:01:35.351Z,35.53
2023-04-08T01:04:20.695Z,37.03
2023-04-08T01:07:17.546Z,42.38
2023-04-08T01:09:46.952Z,31.38
2023-04-08T01:12:18.641Z,41.47
2023-04-08T01:14:47.190Z,38.65
2023-04-08T01:17:15.361Z,38.80
2023-04-08T01:19:44.781Z,33.50
2023-04-08T01:22:19.830Z,42.78
2023-04-08T01:24:47.905Z,39.78
2023-04-08T01:27:14.484Z,45.92
2023-04-08T01:29:42.097Z,46.30
2023-04-08T01:32:09.401Z,46.88
2023-04-08T01:34:36.375Z,43.83
2023-04-08T01:37:03.440Z,43.33
2023-04-08T01:39:30.556Z,43.67
2023-04-08T01:41:59.169Z,43.10
2023-04-08T01:44:26.463Z,49.53
2023-04-08T01:46:54.114Z,54.08
2023-04-08T01:49:22.605Z,43.35
2023-04-08T01:51:49.277Z,50.47
2023-04-08T01:54:16.172Z,55.17
2023-04-08T01:56:44.688Z,45.60
2023-04-08T01:59:14.235Z,59.65
2023-04-08T02:01:41.989Z,63.05
2023-04-08T02:04:08.666Z,45.65
2023-04-08T02:06:35.940Z,51.75
2023-04-08T02:09:02.806Z,52.25
2023-04-08T02:11:29.776Z,60.35
2023-04-08T02:13:56.890Z,52.72
2023-04-08T02:16:31.369Z,53.13
2023-04-08T02:19:08.532Z,49.33
2023-04-08T02:21:47.518Z,54.65
2023-04-08T02:24:15.480Z,53.03
2023-04-08T02:26:43.363Z,59.35
2023-04-08T02:29:12.792Z,56.53
2023-04-08T02:31:41.889Z,61.22
2023-04-08T02:34:10.438Z,59.33
2023-04-08T02:36:37.385Z,56.47
2023-04-08T02:39:04.133Z,52.03
2023-04-08T02:41:31.474Z,63.92
2023-04-08T02:43:58.480Z,63.67
2023-04-08T02:46:24.985Z,72.68
2023-04-08T02:48:51.908Z,64.03
2023-04-08T02:51:18.468Z,65.47
2023-04-08T02:53:45.390Z,70.78
2023-04-08T02:56:12.030Z,61.42
2023-04-08T02:58:38.583Z,61.15
2023-04-08T03:01:05.504Z,63.70
2023-04-08T03:03:32.295Z,63.60
2023-04-08T03:05:58.901Z,59.72
2023-04-08T03:08:25.881Z,61.25
2023-04-08T03:10:52.497Z,64.95
2023-04-08T03:13:19.045Z,57.38
2023-04-08T03:15:45.844Z,67.00
2023-04-08T03:18:12.346Z,63.90
2023-04-08T03:20:38.813Z,59.90
2023-04-08T03:23:05.445Z,59.47
2023-04-08T03:25:32.016Z,67.03
2023-04-08T03:27:58.616Z,60.33
2023-04-08T03:30:25.261Z,64.45
2023-04-08T03:32:51.816Z,68.20
2023-04-08T03:35:18.396Z,62.60
2023-04-08T03:37:44.922Z,58.13
2023-04-08T03:40:12.066Z,67.15
2023-04-08T03:42:38.682Z,71.03
2023-04-08T03:45:05.704Z,67.47
2023-04-08T03:47:32.334Z,66.60
2023-04-08T03:49:58.848Z,70.90
2023-04-08T03:52:25.661Z,70.43
2023-04-08T03:54:52.245Z,70.22
2023-04-08T03:57:18.715Z,72.90
2023-04-08T03:59:45.319Z,73.88
2023-04-08T04:02:11.871Z,55.50
2023-04-08T04:04:38.735Z,69.32
2023-04-08T04:07:05.274Z,62.63
2023-04-08T04:09:31.773Z,73.93
2023-04-08T04:11:58.262Z,78.25
2023-04-08T04:14:24.794Z,67.40
2023-04-08T04:16:51.277Z,66.47
2023-04-08T04:19:18.418Z,61.67
2023-04-08T04:21:44.966Z,70.47
2023-04-08T04:24:11.502Z,68.47
2023-04-08T04:26:38.118Z,77.95
2023-04-08T04:29:04.793Z,69.20
2023-04-08T04:31:31.363Z,73.72
2023-04-08T04:33:57.865Z,79.35
2023-04-08T04:36:24.347Z,68.95
2023-04-08T04:38:51.573Z,73.45
2023-04-08T04:41:18.392Z,74.07
2023-04-08T04:43:44.967Z,64.22
2023-04-08T04:46:11.514Z,59.15
2023-04-08T04:48:38.080Z,73.85
2023-04-08T04:51:04.624Z,63.75
2023-04-08T04:53:31.696Z,67.95
2023-04-08T04:55:58.624Z,61.08
2023-04-08T04:58:25.421Z,67.65
2023-04-08T05:00:51.975Z,65.82
2023-04-08T05:03:18.539Z,64.40
2023-04-08T05:05:45.406Z,66.63
2023-04-08T05:08:11.900Z,61.80
2023-04-08T05:10:40.799Z,58.60
2023-04-08T05:13:07.299Z,67.65
2023-04-08T05:15:33.801Z,63.33
2023-04-08T05:18:00.377Z,61.08
2023-04-08T05:20:26.904Z,60.50
2023-04-08T05:22:53.366Z,63.05
2023-04-08T05:25:19.951Z,65.90
2023-04-08T05:27:46.983Z,67.07
2023-04-08T05:30:13.527Z,66.68
2023-04-08T05:32:40.063Z,57.40
2023-04-08T05:35:07.027Z,50.35
2023-04-08T05:37:33.509Z,57.15
2023-04-08T05:40:00.040Z,65.47
2023-04-08T05:42:27.075Z,59.22
2023-04-08T05:44:53.552Z,59.05
2023-04-08T05:47:20.306Z,61.53
2023-04-08T05:49:46.817Z,64.85
2023-04-08T05:52:13.328Z,67.13
2023-04-08T05:54:42.976Z,62.30
2023-04-08T05:57:10.524Z,59.88
2023-04-08T05:59:37.106Z,54.97
2023-04-08T06:02:03.810Z,64.25
2023-04-08T06:04:30.496Z,56.17
2023-04-08T06:06:59.734Z,61.72
2023-04-08T06:09:26.489Z,62.90
2023-04-08T06:11:52.971Z,58.28
2023-04-08T06:14:20.837Z,61.42
2023-04-08T06:16:47.528Z,62.33
2023-04-08T06:19:14.057Z,62.55
2023-04-08T06:21:40.550Z,64.68
2023-04-08T06:24:07.021Z,59.42
2023-04-08T06:26:33.558Z,60.35
2023-04-08T06:29:00.630Z,60.33
2023-04-08T06:31:27.141Z,61.38
2023-04-08T06:33:53.644Z,61.72
2023-04-08T06:36:20.471Z,57.10
2023-04-08T06:38:47.074Z,58.58
2023-04-08T06:41:13.558Z,59.58
2023-04-08T06:43:40.044Z,58.50
2023-04-08T06:46:07.027Z,56.88
2023-04-08T06:48:33.704Z,56.20
2023-04-08T06:51:01.293Z,54.55
2023-04-08T06:53:29.456Z,55.30
2023-04-08T06:55:55.985Z,58.42
2023-04-08T06:58:22.658Z,49.38
2023-04-08T07:00:49.250Z,52.53
2023-04-08T07:03:16.075Z,54.00
2023-04-08T07:05:42.617Z,50.95
2023-04-08T07:08:09.222Z,53.75
2023-04-08T07:10:36.102Z,51.78
2023-04-08T07:13:02.993Z,51.20
2023-04-08T07:15:29.544Z,50.05
2023-04-08T07:17:59.914Z,53.55
2023-04-08T07:20:26.642Z,49.42
2023-04-08T07:22:53.232Z,52.22
2023-04-08T07:25:19.809Z,50.75
2023-04-08T07:27:46.558Z,48.88
2023-04-08T07:30:13.159Z,50.33
2023-04-08T07:32:39.871Z,54.42
2023-04-08T07:35:06.574Z,51.35
2023-04-08T07:37:33.141Z,53.92
2023-04-08T07:39:59.637Z,52.20
2023-04-08T07:42:26.125Z,50.08
2023-04-08T07:44:52.841Z,54.20
2023-04-08T07:47:19.411Z,49.88
2023-04-08T07:49:47.008Z,49.42
2023-04-08T07:52:13.494Z,51.00
2023-04-08T07:54:40.022Z,46.72
2023-04-08T07:57:06.623Z,46.70
2023-04-08T07:59:33.388Z,49.97
2023-04-08T08:01:59.897Z,48.67
2023-04-08T08:04:26.755Z,50.78
2023-04-08T08:06:53.418Z,47.95
2023-04-08T08:09:19.924Z,48.13
2023-04-08T08:11:46.435Z,48.17
2023-04-08T08:14:13.956Z,45.67
2023-04-08T08:16:40.512Z,44.42
2023-04-08T08:19:08.767Z,43.95
2023-04-08T08:21:38.282Z,42.90
2023-04-08T08:24:05.031Z,46.88
2023-04-08T08:26:31.535Z,40.10
2023-04-08T08:28:58.056Z,39.83
2023-04-08T08:31:24.567Z,43.95
2023-04-08T08:33:51.333Z,40.47
2023-04-08T08:36:18.214Z,43.40
2023-04-08T08:38:44.771Z,43.88
2023-04-08T08:41:11.257Z,39.00
2023-04-08T08:43:38.338Z,38.33
2023-04-08T08:46:04.824Z,42.25
2023-04-08T08:48:32.372Z,35.00
2023-04-08T08:50:58.854Z,39.33
2023-04-08T08:53:29.975Z,38.78
2023-04-08T08:58:27.739Z,38.60
2023-04-08T09:00:54.245Z,36.42
2023-04-08T09:03:27.657Z,39.90
2023-04-08T09:05:59.768Z,41.17
2023-04-08T09:08:36.886Z,42.97
2023-04-08T09:11:17.503Z,39.03
2023-04-08T09:13:45.068Z,37.40
2023-04-08T09:16:13.959Z,40.38
2023-04-08T09:18:44.815Z,36.13
2023-04-08T09:21:12.462Z,35.85
2023-04-08T09:23:49.938Z,36.13
2023-04-08T09:26:20.100Z,35.92
2023-04-08T09:29:14.748Z,31.27
2023-04-08T09:34:25.598Z,34.13
2023-04-08T09:36:53.163Z,32.83
2023-04-08T09:39:19.874Z,33.30
2023-04-08T09:41:48.889Z,35.17
2023-04-08T09:44:17.039Z,36.15
2023-04-08T09:46:49.181Z,35.70
2023-04-08T09:49:23.034Z,36.70
2023-04-08T09:52:08.575Z,38.95
2023-04-08T09:54:53.206Z,38.28
2023-04-08T09:57:31.343Z,36.42
2023-04-08T10:00:03.535Z,36.85
2023-04-08T10:03:07.503Z,37.70
2023-04-08T10:05:37.802Z,36.97
2023-04-08T10:08:05.827Z,37.33
2023-04-08T10:10:32.810Z,35.30
2023-04-08T10:12:59.545Z,37.35
2023-04-08T10:15:36.906Z,34.25
2023-04-08T10:18:03.301Z,32.60
2023-04-08T10:20:38.729Z,34.50
2023-04-08T10:23:10.616Z,35.30
2023-04-08T10:25:48.020Z,31.42
2023-04-08T10:28:15.243Z,35.85
2023-04-08T10:30:46.152Z,32.45
2023-04-08T10:33:22.903Z,28.63
2023-04-08T10:36:00.889Z,25.98
2023-04-08T10:38:27.436Z,22.95
2023-04-08T10:40:54.246Z,23.45
2023-04-08T10:43:21.065Z,24.40
2023-04-08T10:45:51.345Z,25.67
2023-04-08T10:48:19.878Z,29.92
2023-04-08T10:50:56.985Z,26.90
2023-04-08T10:53:31.262Z,32.63
2023-04-08T10:56:08.113Z,28.73
2023-04-08T10:58:51.184Z,26.80
2023-04-08T11:01:19.858Z,25.80
2023-04-08T11:03:46.566Z,29.35
2023-04-08T11:06:13.257Z,27.02
2023-04-08T11:08:39.819Z,26.05
2023-04-08T11:11:11.681Z,27.02
2023-04-08T11:13:46.457Z,24.83
2023-04-08T11:16:19.441Z,27.70
2023-04-08T11:18:46.247Z,27.58
2023-04-08T11:21:12.863Z,27.10
2023-04-08T11:23:39.400Z,27.70
2023-04-08T11:26:06.527Z,26.67
2023-04-08T11:28:33.168Z,26.30
2023-04-08T11:30:59.827Z,29.27
2023-04-08T11:33:27.343Z,27.27
2023-04-08T11:35:54.054Z,27.08
2023-04-08T11:38:24.679Z,26.83
2023-04-08T11:40:55.575Z,24.95
2023-04-08T11:43:22.466Z,23.45
2023-04-08T11:45:49.031Z,21.52
2023-04-08T11:48:16.449Z,24.60
2023-04-08T11:50:43.956Z,25.38
2023-04-08T11:53:21.367Z,22.83
2023-04-08T11:55:48.968Z,21.65
2023-04-08T11:58:15.817Z,23.27
2023-04-08T12:00:42.853Z,23.50
2023-04-08T12:03:09.540Z,22.90
2023-04-08T12:05:36.347Z,22.17
2023-04-08T12:08:03.526Z,22.38
2023-04-08T12:10:30.098Z,21.52
2023-04-08T12:12:56.742Z,22.23
2023-04-08T12:15:23.248Z,22.98
2023-04-08T12:17:49.911Z,25.13
2023-04-08T12:20:17.330Z,23.48
2023-04-08T12:22:43.867Z,20.85
2023-04-08T12:25:10.354Z,20.23
2023-04-08T12:27:36.864Z,18.30
2023-04-08T12:30:03.692Z,20.48
2023-04-08T12:32:30.224Z,19.85
2023-04-08T12:34:56.870Z,17.65
2023-04-08T12:37:23.376Z,17.67
2023-04-08T12:39:49.932Z,16.52
2023-04-08T12:42:16.603Z,11.23
2023-04-08T12:44:43.127Z,12.00
2023-04-08T12:47:09.817Z,10.23
2023-04-08T12:49:48.823Z,11.05
2023-04-08T12:52:16.216Z,13.35
2023-04-08T12:54:42.800Z,12.98
2023-04-08T12:57:09.333Z,13.13
2023-04-08T12:59:35.986Z,13.10
2023-04-08T13:02:02.555Z,14.43
2023-04-08T13:04:29.083Z,15.02
2023-04-08T13:06:56.357Z,14.25
2023-04-08T13:09:22.978Z,15.05
2023-04-08T13:11:49.590Z,15.05
2023-04-08T13:14:16.432Z,14.02
2023-04-08T13:16:42.958Z,15.05
2023-04-08T13:19:09.486Z,13.98
2023-04-08T13:21:36.244Z,14.30
2023-04-08T13:24:02.750Z,13.23
2023-04-08T13:26:29.350Z,14.70
2023-04-08T13:28:57.610Z,14.10
2023-04-08T13:31:24.942Z,12.95
2023-04-08T13:33:51.581Z,10.98
2023-04-08T13:36:18.150Z,10.77
2023-04-08T13:38:46.068Z,10.93
2023-04-08T13:41:12.621Z,10.27
2023-04-08T13:43:39.089Z,10.38
2023-04-08T13:46:05.798Z,9.68
2023-04-08T13:48:32.406Z,9.93
2023-04-08T13:50:58.915Z,10.57
2023-04-08T13:53:25.377Z,10.50
2023-04-08T13:55:55.165Z,10.30
2023-04-08T13:58:24.168Z,9.52
2023-04-08T14:00:51.678Z,10.60
2023-04-08T14:03:18.987Z,11.23
2023-04-08T14:05:45.911Z,11.45
2023-04-08T14:08:13.616Z,10.68
2023-04-08T14:10:41.911Z,10.50
2023-04-08T14:13:08.867Z,10.10
2023-04-08T14:15:35.442Z,11.27
2023-04-08T14:18:02.100Z,10.45
2023-04-08T14:20:28.694Z,10.55
2023-04-08T14:22:56.658Z,10.13
2023-04-08T14:25:23.646Z,10.98
2023-04-08T14:27:58.040Z,10.48
2023-04-08T14:30:25.794Z,10.65
2023-04-08T14:32:52.760Z,9.77
2023-04-08T14:35:19.353Z,9.98
2023-04-08T14:37:45.898Z,11.13
2023-04-08T14:40:12.530Z,11.02
2023-04-08T14:42:39.180Z,10.68
2023-04-08T14:45:06.067Z,10.45
2023-04-08T14:47:32.705Z,10.68
2023-04-08T14:49:59.225Z,9.60
2023-04-08T14:52:25.713Z,10.15
2023-04-08T14:54:53.670Z,9.57
2023-04-08T14:57:20.391Z,10.27
2023-04-08T14:59:46.941Z,11.52
2023-04-08T15:02:13.730Z,11.23
2023-04-08T15:04:40.365Z,12.82
2023-04-08T15:07:07.558Z,11.55
2023-04-08T15:09:34.099Z,10.68
2023-04-08T15:12:01.365Z,11.50
2023-04-08T15:14:28.115Z,10.38
2023-04-08T15:16:54.648Z,10.60
2023-04-08T15:19:21.192Z,11.40
2023-04-08T15:21:47.693Z,11.90
2023-04-08T15:24:14.216Z,11.25
2023-04-08T15:26:41.098Z,12.70
2023-04-08T15:29:07.983Z,11.57
2023-04-08T15:31:35.191Z,11.23
2023-04-08T15:34:02.887Z,11.27
2023-04-08T15:36:29.950Z,11.57
2023-04-08T15:38:56.796Z,10.63
2023-04-08T15:41:23.290Z,10.93
2023-04-08T15:43:50.182Z,10.30
2023-04-08T15:46:22.994Z,9.57
2023-04-08T15:48:50.197Z,9.98
2023-04-08T15:51:18.127Z,9.98
2023-04-08T15:53:44.690Z,9.30
2023-04-08T15:56:18.084Z,9.15
2023-04-08T15:58:45.644Z,9.43
2023-04-08T16:01:12.360Z,9.35
2023-04-08T16:03:39.296Z,9.15
2023-04-08T16:06:06.224Z,9.65
2023-04-08T16:08:34.741Z,9.45
2023-04-08T16:11:02.718Z,9.52
2023-04-08T16:13:30.208Z,9.32
2023-04-08T16:15:58.186Z,10.50
2023-04-08T16:18:25.187Z,9.65
2023-04-08T16:20:51.731Z,10.95
2023-04-08T16:23:18.248Z,10.10
2023-04-08T16:25:45.054Z,9.32
2023-04-08T16:28:11.857Z,9.93
2023-04-08T16:30:38.800Z,10.75
2023-04-08T16:33:06.269Z,10.40
2023-04-08T16:35:33.017Z,11.30
2023-04-08T16:37:59.646Z,10.35
2023-04-08T16:40:26.236Z,10.10
2023-04-08T16:42:52.889Z,10.95
2023-04-08T16:45:19.531Z,11.48
2023-04-08T16:47:46.146Z,11.45
2023-04-08T16:50:12.730Z,12.60
2023-04-08T16:52:39.236Z,11.68
2023-04-08T16:55:06.139Z,11.73
2023-04-08T16:57:32.590Z,12.48
2023-04-08T16:59:59.137Z,13.43
2023-04-08T17:02:26.053Z,17.05
2023-04-08T17:04:52.639Z,17.25
2023-04-08T17:07:19.174Z,17.45
2023-04-08T17:09:49.478Z,17.58
2023-04-08T17:12:16.293Z,18.07
2023-04-08T17:14:42.969Z,18.48
2023-04-08T17:17:09.519Z,17.90
2023-04-08T17:19:36.704Z,17.20
2023-04-08T17:22:03.216Z,18.65
2023-04-08T17:24:29.853Z,18.80
2023-04-08T17:26:59.952Z,18.92
2023-04-08T17:29:26.493Z,19.67
2023-04-08T17:31:53.145Z,20.17
2023-04-08T17:34:19.677Z,20.83
2023-04-08T17:36:46.318Z,21.95
2023-04-08T17:39:12.854Z,21.45
2023-04-08T17:41:41.094Z,21.92
2023-04-08T17:44:08.651Z,22.63
2023-04-08T17:46:35.444Z,21.45
2023-04-08T17:49:01.989Z,23.75
2023-04-08T17:51:30.195Z,22.98
2023-04-08T17:53:56.767Z,22.98
2023-04-08T17:56:23.670Z,25.15
2023-04-08T17:58:50.290Z,23.55
2023-04-08T18:01:17.111Z,24.58
2023-04-08T18:03:43.870Z,25.50
2023-04-08T18:06:10.690Z,24.55
2023-04-08T18:08:37.181Z,27.10
2023-04-08T18:11:06.623Z,24.90
2023-04-08T18:13:33.327Z,26.30
2023-04-08T18:15:59.843Z,26.05
2023-04-08T18:18:26.332Z,25.83
2023-04-08T18:20:52.846Z,26.00
2023-04-08T18:23:19.392Z,26.00
2023-04-08T18:25:46.723Z,24.90
2023-04-08T18:28:13.277Z,26.02
2023-04-08T18:30:39.808Z,25.05
2023-04-08T18:33:06.781Z,26.05
2023-04-08T18:35:33.381Z,24.25
2023-04-08T18:37:59.877Z,24.77
2023-04-08T18:40:26.531Z,23.98
2023-04-08T18:42:53.041Z,22.83
2023-04-08T18:45:19.553Z,25.80
2023-04-08T18:47:46.538Z,24.05
2023-04-08T18:50:13.035Z,25.48
2023-04-08T18:52:39.595Z,23.33
2023-04-08T18:55:06.250Z,24.23
2023-04-08T18:57:33.198Z,26.20
2023-04-08T18:59:59.681Z,25.08
2023-04-08T19:02:26.265Z,25.67
2023-04-08T19:04:52.823Z,24.38
2023-04-08T19:07:19.373Z,25.38
2023-04-08T19:09:45.883Z,25.75
2023-04-08T19:12:12.506Z,25.85
2023-04-08T19:14:39.651Z,27.05
2023-04-08T19:17:06.299Z,27.23
2023-04-08T19:19:32.803Z,25.63
2023-04-08T19:22:02.682Z,25.52
2023-04-08T19:24:29.201Z,25.83
2023-04-08T19:26:55.719Z,26.05
2023-04-08T19:29:23.370Z,25.77
2023-04-08T19:31:50.070Z,23.90
2023-04-08T19:34:16.587Z,25.45
2023-04-08T19:36:43.118Z,25.85
2023-04-08T19:39:09.581Z,24.95
2023-04-08T19:41:36.096Z,26.48
2023-04-08T19:44:02.560Z,24.45
2023-04-08T19:46:29.495Z,25.83
2023-04-08T19:48:58.730Z,26.00
2023-04-08T19:51:25.285Z,23.52
2023-04-08T19:53:53.191Z,26.20
2023-04-08T19:56:19.929Z,25.38
2023-04-08T19:58:46.516Z,24.33
2023-04-08T20:01:14.155Z,24.63
2023-04-08T20:03:42.117Z,26.20
2023-04-08T20:06:08.973Z,24.35
2023-04-08T20:08:35.591Z,25.95
2023-04-08T20:11:04.464Z,23.60
2023-04-08T20:13:31.346Z,24.70
2023-04-08T20:15:58.020Z,25.20
2023-04-08T20:18:24.517Z,24.33
2023-04-08T20:20:51.060Z,25.20
2023-04-08T20:23:17.591Z,28.20
2023-04-08T20:25:44.048Z,25.10
2023-04-08T20:28:10.540Z,25.95
2023-04-08T20:30:37.752Z,25.13
2023-04-08T20:33:04.393Z,25.17
2023-04-08T20:35:31.034Z,28.20
2023-04-08T20:37:57.552Z,27.85
2023-04-08T20:40:24.096Z,26.95
2023-04-08T20:42:50.594Z,27.75
2023-04-08T20:45:17.048Z,28.17
2023-04-08T20:47:46.091Z,28.95
2023-04-08T20:50:12.727Z,29.63
2023-04-08T20:52:39.533Z,28.50
2023-04-08T20:55:07.115Z,31.80
2023-04-08T20:57:33.648Z,30.88
2023-04-08T21:00:00.559Z,31.45
2023-04-08T21:02:27.221Z,30.45
2023-04-08T21:04:53.774Z,29.25
2023-04-08T21:07:20.277Z,28.05
2023-04-08T21:09:48.297Z,28.52
2023-04-08T21:12:14.785Z,28.42
2023-04-08T21:14:42.069Z,27.58
2023-04-08T21:17:08.579Z,28.50
2023-04-08T21:19:35.435Z,28.20
2023-04-08T21:22:01.930Z,27.05
2023-04-08T21:24:28.554Z,27.50
2023-04-08T21:26:55.035Z,27.13
2023-04-08T21:29:21.526Z,28.95
2023-04-08T21:31:48.023Z,28.15
2023-04-08T21:34:15.745Z,29.25
2023-04-08T21:36:42.219Z,29.75
2023-04-08T21:39:08.709Z,27.02
2023-04-08T21:41:35.309Z,29.80
2023-04-08T21:44:02.148Z,27.50
2023-04-08T21:46:28.664Z,28.80
2023-04-08T21:48:55.300Z,29.02
2023-04-08T21:51:21.882Z,29.77
2023-04-08T21:53:50.652Z,28.83
2023-04-08T21:56:17.408Z,30.15
2023-04-08T21:58:43.955Z,30.67
2023-04-08T22:01:10.473Z,31.48
2023-04-08T22:03:37.075Z,29.17
2023-04-08T22:06:03.678Z,28.67
2023-04-08T22:08:32.506Z,31.98
2023-04-08T22:10:59.130Z,29.02
2023-04-08T22:13:25.616Z,29.27
2023-04-08T22:15:52.113Z,31.58
2023-04-08T22:18:18.615Z,31.52
2023-04-08T22:20:45.177Z,32.25
2023-04-08T22:23:11.680Z,31.67
2023-04-08T22:25:38.211Z,31.13
2023-04-08T22:28:04.667Z,30.98
2023-04-08T22:30:31.230Z,31.60
2023-04-08T22:32:57.906Z,31.80
2023-04-08T22:35:24.478Z,34.85
2023-04-08T22:37:51.174Z,32.53
2023-04-08T22:40:17.811Z,34.03
2023-04-08T22:42:44.300Z,34.80
2023-04-08T22:45:10.954Z,33.55
2023-04-08T22:47:37.645Z,33.25
2023-04-08T22:50:04.700Z,31.50
2023-04-08T22:52:31.203Z,32.15
2023-04-08T22:54:57.712Z,32.28
2023-04-08T22:57:24.281Z,32.05
2023-04-08T22:59:50.807Z,32.88
2023-04-08T23:02:17.471Z,33.33
2023-04-08T23:04:44.045Z,32.53
2023-04-08T23:07:11.064Z,32.55
2023-04-08T23:09:37.605Z,31.52
2023-04-08T23:12:04.141Z,30.75
2023-04-08T23:14:30.626Z,31.60
2023-04-08T23:16:57.115Z,33.78
2023-04-08T23:19:23.650Z,32.35
2023-04-08T23:21:50.383Z,32.70
2023-04-08T23:24:16.850Z,35.00
2023-04-08T23:26:43.369Z,32.70
2023-04-08T23:29:10.595Z,33.45
2023-04-08T23:31:37.107Z,33.78
2023-04-08T23:34:03.900Z,33.30
2023-04-08T23:36:31.349Z,32.13
2023-04-08T23:38:57.932Z,32.97
2023-04-08T23:41:24.450Z,33.60
2023-04-08T23:43:52.566Z,32.83
2023-04-08T23:46:19.115Z,31.90
2023-04-08T23:48:45.618Z,31.75
2023-04-08T23:51:12.169Z,30.55
2023-04-08T23:53:38.745Z,32.70
2023-04-08T23:56:06.520Z,31.83
2023-04-08T23:58:33.301Z,33.38
